createdAt,value
2018-07-23T00:01:17.207Z,99.90
2018-07-23T00:03:46.008Z,99.90
2018-07-23T00:06:14.563Z,99.90
2018-07-23T00:08:43.018Z,99.90
2018-07-23T00:11:11.812Z,99.90
2018-07-23T00:13:40.245Z,99.90
2018-07-23T00:16:08.698Z,99.90
2018-07-23T00:18:37.146Z,99.90
2018-07-23T00:21:05.597Z,99.90
2018-07-23T00:23:34.012Z,99.90
2018-07-23T00:26:02.452Z,99.90
2018-07-23T00:28:30.897Z,99.90
2018-07-23T00:30:59.340Z,99.90
2018-07-23T00:33:27.800Z,99.90
2018-07-23T00:35:56.230Z,99.90
2018-07-23T00:38:24.656Z,99.90
2018-07-23T00:40:53.070Z,99.90
2018-07-23T00:43:21.519Z,99.90
2018-07-23T00:45:49.957Z,99.90
2018-07-23T00:48:18.410Z,99.90
2018-07-23T00:50:46.840Z,99.90
2018-07-23T00:53:15.258Z,99.90
2018-07-23T00:55:43.714Z,99.90
2018-07-23T00:58:12.138Z,99.90
2018-07-23T01:00:40.638Z,99.90
2018-07-23T01:03:09.127Z,99.90
2018-07-23T01:05:38.783Z,99.90
2018-07-23T01:08:08.186Z,99.90
2018-07-23T01:10:37.006Z,99.90
2018-07-23T01:13:05.798Z,99.90
2018-07-23T01:15:34.428Z,99.90
2018-07-23T01:18:02.863Z,99.90
2018-07-23T01:20:31.439Z,99.90
2018-07-23T01:23:00.227Z,99.90
2018-07-23T01:25:28.652Z,99.90
2018-07-23T01:27:57.082Z,99.90
2018-07-23T01:30:25.546Z,99.90
2018-07-23T01:32:53.986Z,99.90
2018-07-23T01:35:22.431Z,99.90
2018-07-23T01:37:50.842Z,99.90
2018-07-23T01:40:19.951Z,99.90
2018-07-23T01:42:48.432Z,99.90
2018-07-23T01:45:16.866Z,99.90
2018-07-23T01:47:45.331Z,99.90
2018-07-23T01:50:13.820Z,99.90
2018-07-23T01:52:42.245Z,99.90
2018-07-23T01:55:10.676Z,99.90
2018-07-23T01:57:39.200Z,99.90
2018-07-23T02:00:08.046Z,99.90
2018-07-23T02:02:36.490Z,99.90
2018-07-23T02:05:04.955Z,99.90
2018-07-23T02:07:33.389Z,99.90
2018-07-23T02:10:01.795Z,99.90
2018-07-23T02:12:30.237Z,99.90
2018-07-23T02:14:58.698Z,99.90
2018-07-23T02:17:27.114Z,99.90
2018-07-23T02:19:55.641Z,99.90
2018-07-23T02:22:24.066Z,99.90
2018-07-23T02:24:52.883Z,99.90
2018-07-23T02:27:21.459Z,99.90
2018-07-23T02:29:49.887Z,99.90
2018-07-23T02:32:18.328Z,99.90
2018-07-23T02:34:46.809Z,99.90
2018-07-23T02:37:15.282Z,99.90
2018-07-23T02:39:43.726Z,99.90
2018-07-23T02:42:12.377Z,99.90
2018-07-23T02:44:40.788Z,99.90
2018-07-23T02:47:09.896Z,99.90
2018-07-23T02:49:39.046Z,99.90
2018-07-23T02:52:08.382Z,99.90
2018-07-23T02:54:36.897Z,99.90
2018-07-23T02:57:05.332Z,99.90
2018-07-23T02:59:33.802Z,99.90
2018-07-23T03:02:02.233Z,99.90
2018-07-23T03:04:30.681Z,99.90
2018-07-23T03:06:59.114Z,99.90
2018-07-23T03:09:27.545Z,99.90
2018-07-23T03:11:55.995Z,99.90
2018-07-23T03:14:24.405Z,99.90
2018-07-23T03:16:52.880Z,99.90
2018-07-23T03:19:21.350Z,99.90
2018-07-23T03:21:49.878Z,99.90
2018-07-23T03:24:18.499Z,99.90
2018-07-23T03:26:53.160Z,99.90
2018-07-23T03:29:21.609Z,99.90
2018-07-23T03:31:50.119Z,99.90
2018-07-23T03:34:18.598Z,99.90
2018-07-23T03:36:47.048Z,99.90
2018-07-23T03:39:15.490Z,99.90
2018-07-23T03:41:43.918Z,99.90
2018-07-23T03:44:12.404Z,99.90
2018-07-23T03:46:40.855Z,99.90
2018-07-23T03:49:09.283Z,99.90
2018-07-23T03:51:37.763Z,99.90
2018-07-23T03:54:06.406Z,99.90
2018-07-23T03:56:34.865Z,99.90
2018-07-23T03:59:03.341Z,99.90
2018-07-23T04:01:32.134Z,99.90
2018-07-23T04:04:00.581Z,99.90
2018-07-23T04:06:29.392Z,99.90
2018-07-23T04:08:57.870Z,99.90
2018-07-23T04:11:26.321Z,99.90
2018-07-23T04:13:54.755Z,99.90
2018-07-23T04:16:23.196Z,99.90
2018-07-23T04:18:51.645Z,99.90
2018-07-23T04:21:20.094Z,99.90
2018-07-23T04:23:48.530Z,99.90
2018-07-23T04:26:17.123Z,99.90
2018-07-23T04:28:45.562Z,99.90
2018-07-23T04:31:14.023Z,99.90
2018-07-23T04:33:42.473Z,99.90
2018-07-23T04:36:10.922Z,99.90
2018-07-23T04:38:39.358Z,99.90
2018-07-23T04:41:08.144Z,99.90
2018-07-23T04:43:36.609Z,99.90
2018-07-23T04:46:05.164Z,99.90
2018-07-23T04:48:33.865Z,99.90
2018-07-23T04:51:02.347Z,99.90
2018-07-23T04:53:31.112Z,99.90
2018-07-23T04:56:00.012Z,99.90
2018-07-23T04:58:28.441Z,99.90
2018-07-23T05:00:57.020Z,99.90
2018-07-23T05:03:25.536Z,99.90
2018-07-23T05:05:53.986Z,99.90
2018-07-23T05:08:22.465Z,99.90
2018-07-23T05:10:50.965Z,99.90
2018-07-23T05:13:19.421Z,99.90
2018-07-23T05:15:47.847Z,99.90
2018-07-23T05:18:16.385Z,99.90
2018-07-23T05:20:44.820Z,99.90
2018-07-23T05:23:13.276Z,99.90
2018-07-23T05:25:41.695Z,99.90
2018-07-23T05:28:10.169Z,99.90
2018-07-23T05:30:38.641Z,99.90
2018-07-23T05:33:07.165Z,99.90
2018-07-23T05:35:35.830Z,99.90
2018-07-23T05:38:04.255Z,99.90
2018-07-23T05:40:32.722Z,99.90
2018-07-23T05:43:01.145Z,99.90
2018-07-23T05:45:29.595Z,99.90
2018-07-23T05:47:58.089Z,99.90
2018-07-23T05:50:26.561Z,99.90
2018-07-23T05:52:54.989Z,99.90
2018-07-23T05:55:23.452Z,99.90
2018-07-23T05:57:51.927Z,99.90
2018-07-23T06:00:20.367Z,99.90
2018-07-23T06:02:48.910Z,99.90
2018-07-23T06:05:18.073Z,99.90
2018-07-23T06:07:46.605Z,99.90
2018-07-23T06:10:15.107Z,99.90
2018-07-23T06:12:43.564Z,99.90
2018-07-23T06:15:12.416Z,99.90
2018-07-23T06:17:40.906Z,99.90
2018-07-23T06:20:09.948Z,99.90
2018-07-23T06:22:38.922Z,99.90
2018-07-23T06:25:08.316Z,99.90
2018-07-23T06:27:36.766Z,99.90
2018-07-23T06:30:07.643Z,99.90
2018-07-23T06:32:36.286Z,99.90
2018-07-23T06:35:05.297Z,99.90
2018-07-23T06:37:34.061Z,99.90
2018-07-23T06:40:03.121Z,99.90
2018-07-23T06:42:31.635Z,99.90
2018-07-23T06:45:00.071Z,99.90
2018-07-23T06:47:28.609Z,99.90
2018-07-23T06:49:57.149Z,99.90
2018-07-23T06:52:25.870Z,99.90
2018-07-23T06:54:54.331Z,99.90
2018-07-23T06:57:22.905Z,99.90
2018-07-23T06:59:51.549Z,99.90
2018-07-23T07:02:20.019Z,99.90
2018-07-23T07:04:48.438Z,99.90
2018-07-23T07:07:16.898Z,99.90
2018-07-23T07:09:45.373Z,99.90
2018-07-23T07:12:13.875Z,99.90
2018-07-23T07:14:42.687Z,99.90
2018-07-23T07:17:11.149Z,99.90
2018-07-23T07:19:39.578Z,99.90
2018-07-23T07:22:08.408Z,99.90
2018-07-23T07:24:36.858Z,99.90
2018-07-23T07:27:05.773Z,99.90
2018-07-23T07:29:34.283Z,99.90
2018-07-23T07:32:02.817Z,99.90
2018-07-23T07:34:31.379Z,99.90
2018-07-23T07:36:59.845Z,99.90
2018-07-23T07:39:28.503Z,99.90
2018-07-23T07:41:57.346Z,99.30
2018-07-23T07:44:26.153Z,98.40
2018-07-23T07:46:54.626Z,97.20
2018-07-23T07:49:23.155Z,99.00
2018-07-23T07:51:51.776Z,98.00
2018-07-23T07:54:20.291Z,97.00
2018-07-23T07:56:48.794Z,96.90
2018-07-23T07:59:17.297Z,95.90
2018-07-23T08:01:46.025Z,95.40
2018-07-23T08:04:14.646Z,95.40
2018-07-23T08:06:43.200Z,94.40
2018-07-23T08:09:11.680Z,94.90
2018-07-23T08:11:40.476Z,94.40
2018-07-23T08:14:08.925Z,96.10
2018-07-23T08:16:37.389Z,96.00
2018-07-23T08:19:06.260Z,95.40
2018-07-23T08:21:35.076Z,96.20
2018-07-23T08:24:03.594Z,96.00
2018-07-23T08:26:32.040Z,96.70
2018-07-23T08:29:00.726Z,96.40
2018-07-23T08:31:29.221Z,96.60
2018-07-23T08:33:57.894Z,97.40
2018-07-23T08:36:26.401Z,97.70
2018-07-23T08:38:54.884Z,98.00
2018-07-23T08:41:23.342Z,97.30
2018-07-23T08:43:51.958Z,97.40
2018-07-23T08:46:20.489Z,96.90
2018-07-23T08:48:49.029Z,96.60
2018-07-23T08:51:17.592Z,96.90
2018-07-23T08:53:46.192Z,97.10
2018-07-23T08:56:14.687Z,96.90
2018-07-23T08:58:43.294Z,97.10
2018-07-23T09:01:11.770Z,97.40
2018-07-23T09:03:40.276Z,97.50
2018-07-23T09:06:08.746Z,97.50
2018-07-23T09:08:37.341Z,97.30
2018-07-23T09:11:05.933Z,96.50
2018-07-23T09:13:34.393Z,96.70
2018-07-23T09:16:02.892Z,96.70
2018-07-23T09:18:31.365Z,97.60
2018-07-23T09:21:00.185Z,98.40
2018-07-23T09:23:28.643Z,98.50
2018-07-23T09:25:57.288Z,98.10
2018-07-23T09:28:25.735Z,98.80
2018-07-23T09:30:57.760Z,97.80
2018-07-23T09:33:26.399Z,97.80
2018-07-23T09:35:55.150Z,98.40
2018-07-23T09:38:24.034Z,97.50
2018-07-23T09:40:52.924Z,96.70
2018-07-23T09:43:22.138Z,97.40
2018-07-23T09:45:50.618Z,97.40
2018-07-23T09:48:19.085Z,96.30
2018-07-23T09:50:47.878Z,95.00
2018-07-23T09:53:16.357Z,94.00
2018-07-23T09:55:44.803Z,94.90
2018-07-23T09:58:13.274Z,95.60
2018-07-23T10:00:47.042Z,96.50
2018-07-23T10:03:15.631Z,97.00
2018-07-23T10:05:44.220Z,96.80
2018-07-23T10:08:12.694Z,96.90
2018-07-23T10:10:41.231Z,97.50
2018-07-23T10:13:09.791Z,96.30
2018-07-23T10:15:38.258Z,96.10
2018-07-23T10:18:06.733Z,95.20
2018-07-23T10:20:35.538Z,94.20
2018-07-23T10:23:04.052Z,93.70
2018-07-23T10:25:32.474Z,94.50
2018-07-23T10:28:00.925Z,94.60
2018-07-23T10:30:29.835Z,94.00
2018-07-23T10:32:58.299Z,94.50
2018-07-23T10:35:26.749Z,95.70
2018-07-23T10:37:55.249Z,95.10
2018-07-23T10:40:23.702Z,94.40
2018-07-23T10:42:52.177Z,94.00
2018-07-23T10:45:20.662Z,95.00
2018-07-23T10:47:49.223Z,95.20
2018-07-23T10:50:17.748Z,94.80
2018-07-23T10:52:46.267Z,94.30
2018-07-23T10:55:14.714Z,94.60
2018-07-23T10:57:43.517Z,95.40
2018-07-23T11:00:12.013Z,95.20
2018-07-23T11:02:40.451Z,94.40
2018-07-23T11:05:09.452Z,95.00
2018-07-23T11:07:37.936Z,95.20
2018-07-23T11:10:07.266Z,95.00
2018-07-23T11:12:36.046Z,95.30
2018-07-23T11:15:06.143Z,95.00
2018-07-23T11:17:34.976Z,93.70
2018-07-23T11:20:03.487Z,93.20
2018-07-23T11:22:32.110Z,93.20
2018-07-23T11:25:37.950Z,92.70
2018-07-23T11:27:29.401Z,92.60
2018-07-23T11:29:57.902Z,93.10
2018-07-23T11:32:26.321Z,93.30
2018-07-23T11:34:54.785Z,93.70
2018-07-23T11:37:23.229Z,93.80
2018-07-23T11:39:51.680Z,94.10
2018-07-23T11:42:20.179Z,93.40
2018-07-23T11:44:48.818Z,92.80
2018-07-23T11:47:17.489Z,92.60
2018-07-23T11:49:46.033Z,92.90
2018-07-23T11:52:14.785Z,92.80
2018-07-23T11:54:43.427Z,93.30
2018-07-23T11:57:11.957Z,94.00
2018-07-23T11:59:40.421Z,94.30
2018-07-23T12:02:09.009Z,94.70
2018-07-23T12:04:37.724Z,94.40
2018-07-23T12:07:06.972Z,94.30
2018-07-23T12:09:35.416Z,93.00
2018-07-23T12:12:03.919Z,93.10
2018-07-23T12:14:32.450Z,91.50
2018-07-23T12:17:00.996Z,92.30
2018-07-23T12:19:29.489Z,92.60
2018-07-23T12:21:57.942Z,92.50
2018-07-23T12:24:26.399Z,92.10
2018-07-23T12:26:54.869Z,91.50
2018-07-23T12:29:23.307Z,92.30
2018-07-23T12:31:51.772Z,92.40
2018-07-23T12:34:20.203Z,92.00
2018-07-23T12:36:48.684Z,92.80
2018-07-23T12:39:17.292Z,92.80
2018-07-23T12:41:45.913Z,92.60
2018-07-23T12:44:14.362Z,92.50
2018-07-23T12:46:42.823Z,91.90
2018-07-23T12:49:11.561Z,92.10
2018-07-23T12:51:40.040Z,91.60
2018-07-23T12:54:09.611Z,91.40
2018-07-23T12:56:38.381Z,91.70
2018-07-23T12:59:06.863Z,91.20
2018-07-23T13:01:35.341Z,91.30
2018-07-23T13:04:03.837Z,90.90
2018-07-23T13:06:32.317Z,91.60
2018-07-23T13:09:00.856Z,91.30
2018-07-23T13:11:29.314Z,91.80
2018-07-23T13:13:58.114Z,91.20
2018-07-23T13:16:26.558Z,90.90
2018-07-23T13:18:55.023Z,90.60
2018-07-23T13:21:23.495Z,90.00
2018-07-23T13:23:51.983Z,90.00
2018-07-23T13:26:20.418Z,91.30
2018-07-23T13:28:48.846Z,90.70
2018-07-23T13:31:17.302Z,90.40
2018-07-23T13:33:45.782Z,91.10
2018-07-23T13:36:14.607Z,91.00
2018-07-23T13:38:43.042Z,90.80
2018-07-23T13:41:11.495Z,91.00
2018-07-23T13:43:40.017Z,90.20
2018-07-23T13:46:08.469Z,90.80
2018-07-23T13:48:36.976Z,91.10
2018-07-23T13:51:05.395Z,90.70
2018-07-23T13:53:33.953Z,90.70
2018-07-23T13:56:02.738Z,91.10
2018-07-23T13:58:31.216Z,92.10
2018-07-23T14:01:00.245Z,92.30
2018-07-23T14:03:28.710Z,92.40
2018-07-23T14:05:57.138Z,92.40
2018-07-23T14:08:25.910Z,92.00
2018-07-23T14:10:54.469Z,91.90
2018-07-23T14:13:22.963Z,91.80
2018-07-23T14:15:51.414Z,92.50
2018-07-23T14:18:20.205Z,92.00
2018-07-23T14:20:48.715Z,92.20
2018-07-23T14:23:17.182Z,91.40
2018-07-23T14:25:45.845Z,92.10
2018-07-23T14:28:14.500Z,92.20
2018-07-23T14:30:43.080Z,92.30
2018-07-23T14:33:11.643Z,92.30
2018-07-23T14:35:40.090Z,92.20
2018-07-23T14:38:08.560Z,92.30
2018-07-23T14:40:37.009Z,91.30
2018-07-23T14:43:05.518Z,91.80
2018-07-23T14:45:33.963Z,92.00
2018-07-23T14:48:02.473Z,92.30
2018-07-23T14:50:30.904Z,91.30
2018-07-23T14:52:59.372Z,92.10
2018-07-23T14:55:28.242Z,92.20
2018-07-23T14:57:57.142Z,91.60
2018-07-23T15:00:25.629Z,92.00
2018-07-23T15:02:54.198Z,91.80
2018-07-23T15:05:22.644Z,91.50
2018-07-23T15:07:51.332Z,91.60
2018-07-23T15:10:19.829Z,91.40
2018-07-23T15:12:48.266Z,91.50
2018-07-23T15:15:16.741Z,92.30
2018-07-23T15:17:45.347Z,91.40
2018-07-23T15:20:13.806Z,91.00
2018-07-23T15:22:42.292Z,91.80
2018-07-23T15:25:11.179Z,92.00
2018-07-23T15:27:39.712Z,91.50
2018-07-23T15:30:08.206Z,91.90
2018-07-23T15:32:36.686Z,91.60
2018-07-23T15:35:05.211Z,91.90
2018-07-23T15:37:33.661Z,92.30
2018-07-23T15:40:02.087Z,92.60
2018-07-23T15:42:30.590Z,92.20
2018-07-23T15:44:59.466Z,92.00
2018-07-23T15:47:27.880Z,91.90
2018-07-23T15:49:56.350Z,92.30
2018-07-23T15:52:24.799Z,92.10
2018-07-23T15:54:53.275Z,92.20
2018-07-23T15:57:21.815Z,92.20
2018-07-23T15:59:50.319Z,92.00
2018-07-23T16:02:18.774Z,92.60
2018-07-23T16:04:47.195Z,92.10
2018-07-23T16:07:15.785Z,92.00
2018-07-23T16:09:44.374Z,92.20
2018-07-23T16:12:13.015Z,92.20
2018-07-23T16:14:41.482Z,92.50
2018-07-23T16:17:09.972Z,92.10
2018-07-23T16:19:38.424Z,91.60
2018-07-23T16:22:07.205Z,91.60
2018-07-23T16:24:35.699Z,91.10
2018-07-23T16:27:04.224Z,91.40
2018-07-23T16:29:32.714Z,91.90
2018-07-23T16:32:01.179Z,91.30
2018-07-23T16:34:29.742Z,91.40
2018-07-23T16:36:58.198Z,91.50
2018-07-23T16:39:26.768Z,92.00
2018-07-23T16:41:55.248Z,92.30
2018-07-23T16:44:24.118Z,92.10
2018-07-23T16:46:52.603Z,92.00
2018-07-23T16:49:21.278Z,91.90
2018-07-23T16:51:49.757Z,92.00
2018-07-23T16:54:18.174Z,92.10
2018-07-23T16:56:46.652Z,92.70
2018-07-23T16:59:15.156Z,92.50
2018-07-23T17:01:43.643Z,92.40
2018-07-23T17:04:12.092Z,92.50
2018-07-23T17:06:40.797Z,91.80
2018-07-23T17:09:10.822Z,92.40
2018-07-23T17:11:39.287Z,92.70
2018-07-23T17:14:08.522Z,92.60
2018-07-23T17:16:36.975Z,92.40
2018-07-23T17:19:05.798Z,92.70
2018-07-23T17:21:34.458Z,92.50
2018-07-23T17:24:02.921Z,92.80
2018-07-23T17:26:31.414Z,92.70
2018-07-23T17:28:59.876Z,92.60
2018-07-23T17:31:28.661Z,92.80
2018-07-23T17:33:57.256Z,92.90
2018-07-23T17:36:26.201Z,92.80
2018-07-23T17:38:54.717Z,93.40
2018-07-23T17:44:26.826Z,92.80
2018-07-23T17:47:01.204Z,93.20
2018-07-23T17:49:33.597Z,92.80
2018-07-23T17:52:02.373Z,92.40
2018-07-23T17:54:30.880Z,93.10
2018-07-23T17:56:59.641Z,92.30
2018-07-23T17:59:28.046Z,92.60
2018-07-23T18:01:56.446Z,92.70
2018-07-23T18:04:24.849Z,93.00
2018-07-23T18:06:53.339Z,93.10
2018-07-23T18:09:21.748Z,93.70
2018-07-23T18:11:50.216Z,92.90
2018-07-23T18:14:18.632Z,93.80
2018-07-23T18:16:47.068Z,93.20
2018-07-23T18:19:15.507Z,93.50
2018-07-23T18:21:43.935Z,93.60
2018-07-23T18:24:12.321Z,93.70
2018-07-23T18:26:40.725Z,93.70
2018-07-23T18:29:09.285Z,93.50
2018-07-23T18:31:37.771Z,94.10
2018-07-23T18:34:06.724Z,93.70
2018-07-23T18:36:35.280Z,93.80
2018-07-23T18:39:05.957Z,94.10
2018-07-23T18:41:34.464Z,94.20
2018-07-23T18:44:02.921Z,94.30
2018-07-23T18:46:31.494Z,94.30
2018-07-23T18:49:23.016Z,94.40
2018-07-23T18:51:52.708Z,94.50
2018-07-23T18:54:22.149Z,94.80
2018-07-23T18:56:52.596Z,94.40
2018-07-23T18:59:21.444Z,94.60
2018-07-23T19:01:51.092Z,94.70
2018-07-23T19:04:19.472Z,95.00
2018-07-23T19:06:48.161Z,95.20
2018-07-23T19:09:17.789Z,95.20
2018-07-23T19:11:47.275Z,95.60
2018-07-23T19:14:16.101Z,95.40
2018-07-23T19:16:44.992Z,95.60
2018-07-23T19:19:13.532Z,95.90
2018-07-23T19:21:42.933Z,96.10
2018-07-23T19:24:11.812Z,96.40
2018-07-23T19:26:41.986Z,96.60
2018-07-23T19:29:10.426Z,96.80
2018-07-23T19:31:38.925Z,97.40
2018-07-23T19:34:07.822Z,97.60
2018-07-23T19:36:36.278Z,97.70
2018-07-23T19:39:08.590Z,98.00
2018-07-23T19:41:38.059Z,98.30
2018-07-23T19:44:07.121Z,98.70
2018-07-23T19:46:35.734Z,98.90
2018-07-23T19:49:04.395Z,99.40
2018-07-23T19:51:32.842Z,99.60
2018-07-23T19:54:01.273Z,99.90
2018-07-23T19:56:29.724Z,99.90
2018-07-23T19:58:58.189Z,99.90
2018-07-23T20:01:26.937Z,99.90
2018-07-23T20:03:55.352Z,99.90
2018-07-23T20:06:26.956Z,99.90
2018-07-23T20:08:56.426Z,99.90
2018-07-23T20:11:25.777Z,99.90
2018-07-23T20:13:54.170Z,99.90
2018-07-23T20:16:22.686Z,99.90
2018-07-23T20:18:51.464Z,99.90
2018-07-23T20:21:19.956Z,99.90
2018-07-23T20:23:48.770Z,99.90
2018-07-23T20:26:17.411Z,99.90
2018-07-23T20:28:46.017Z,99.90
2018-07-23T20:31:14.414Z,99.90
2018-07-23T20:33:42.873Z,99.90
2018-07-23T20:36:11.377Z,99.90
2018-07-23T20:38:39.802Z,99.90
2018-07-23T20:41:08.244Z,99.90
2018-07-23T20:43:36.729Z,99.90
2018-07-23T20:46:05.208Z,99.90
2018-07-23T20:48:35.778Z,99.90
2018-07-23T20:51:04.597Z,99.90
2018-07-23T20:53:37.812Z,99.90
2018-07-23T20:56:06.250Z,99.90
2018-07-23T20:58:34.677Z,99.90
2018-07-23T21:01:03.122Z,99.90
2018-07-23T21:03:31.877Z,99.90
2018-07-23T21:06:01.323Z,99.90
2018-07-23T21:08:29.756Z,99.90
2018-07-23T21:10:58.182Z,99.90
2018-07-23T21:13:26.660Z,99.90
2018-07-23T21:15:55.205Z,99.90
2018-07-23T21:18:23.621Z,99.90
2018-07-23T21:20:52.476Z,99.90
2018-07-23T21:23:21.254Z,99.90
2018-07-23T21:25:49.695Z,99.90
2018-07-23T21:28:18.160Z,99.90
2018-07-23T21:30:46.930Z,99.90
2018-07-23T21:33:15.398Z,99.90
2018-07-23T21:35:43.831Z,99.90
2018-07-23T21:38:12.252Z,99.90
2018-07-23T21:40:40.704Z,99.90
2018-07-23T21:43:09.129Z,99.90
2018-07-23T21:45:37.535Z,99.90
2018-07-23T21:48:06.312Z,99.90
2018-07-23T21:50:34.746Z,99.90
2018-07-23T21:53:03.181Z,99.90
2018-07-23T21:55:31.573Z,99.90
2018-07-23T21:58:00.036Z,99.90
2018-07-23T22:00:28.841Z,99.90
2018-07-23T22:02:57.242Z,99.90
2018-07-23T22:05:25.661Z,99.90
2018-07-23T22:07:54.060Z,99.90
2018-07-23T22:10:22.853Z,99.90
2018-07-23T22:12:51.307Z,99.90
2018-07-23T22:15:19.925Z,99.90
2018-07-23T22:17:48.357Z,99.90
2018-07-23T22:20:16.809Z,99.90
2018-07-23T22:22:45.247Z,99.90
2018-07-23T22:25:13.691Z,99.90
2018-07-23T22:27:42.101Z,99.90
2018-07-23T22:30:10.655Z,99.90
2018-07-23T22:32:39.217Z,99.90
2018-07-23T22:35:07.657Z,99.90
2018-07-23T22:37:36.184Z,99.90
2018-07-23T22:40:04.660Z,99.90
2018-07-23T22:42:37.977Z,99.90
2018-07-23T22:45:06.565Z,99.90
2018-07-23T22:47:34.941Z,99.90
2018-07-23T22:50:03.782Z,99.90
2018-07-23T22:52:32.304Z,99.90
2018-07-23T22:55:01.073Z,99.90
2018-07-23T22:57:29.530Z,99.90
2018-07-23T22:59:58.108Z,99.90
2018-07-23T23:02:26.525Z,99.90
2018-07-23T23:04:54.934Z,99.90
2018-07-23T23:07:23.687Z,99.90
2018-07-23T23:09:52.089Z,99.90
2018-07-23T23:12:20.506Z,99.90
2018-07-23T23:14:48.949Z,99.90
2018-07-23T23:17:17.378Z,99.90
2018-07-23T23:19:45.784Z,99.90
2018-07-23T23:22:14.577Z,99.90
2018-07-23T23:24:43.301Z,99.90
2018-07-23T23:27:11.681Z,99.90
2018-07-23T23:29:40.087Z,99.90
2018-07-23T23:32:08.532Z,99.90
2018-07-23T23:34:36.912Z,99.90
2018-07-23T23:37:05.309Z,99.90
2018-07-23T23:39:33.726Z,99.90
2018-07-23T23:42:02.146Z,99.90
2018-07-23T23:44:30.553Z,99.90
2018-07-23T23:46:58.968Z,99.90
2018-07-23T23:49:27.340Z,99.90
2018-07-23T23:51:55.737Z,99.90
2018-07-23T23:54:24.121Z,99.90
2018-07-23T23:56:52.540Z,99.90
2018-07-23T23:59:20.972Z,99.90
